Time;durP1;ratioP1;P1;durP2;ratioP2;P2;SDS_P1;SDS_P2;PMS_P1;PMS_P2;Temp;Humidity;BMP_temperature;BMP_pressure;BME280_temperature;BME280_humidity;BME280_pressure;Samples;Min_cycle;Max_cycle;Signal;HPM_P1;HPM_P2
2022/01/16 00:04:07;;;;;;;;;54.75;44.75;;;;;4.94;57.52;102178.25;4978239;28;45688;-73
2022/01/16 00:06:33;;;;;;;;;57.75;43.75;;;;;5.04;58.14;102199.78;4976090;28;46189;-74
2022/01/16 00:08:59;;;;;;;;;57.00;45.25;;;;;4.96;57.77;102181.69;4978712;28;45239;-74
2022/01/16 00:11:25;;;;;;;;;54.00;42.00;;;;;4.96;57.48;102165.88;4978923;28;45668;-74
2022/01/16 00:13:51;;;;;;;;;55.75;46.00;;;;;4.88;57.38;102162.75;4979190;28;46040;-74
2022/01/16 00:16:17;;;;;;;;;63.25;48.00;;;;;4.93;57.38;102176.56;4977265;28;46189;-74
2022/01/16 00:18:50;;;;;;;;;61.00;45.00;;;;;4.93;57.19;102173.91;4960338;28;45420;-74
2022/01/16 00:21:28;;;;;;;;;59.75;45.50;;;;;4.75;57.52;102138.75;4979472;28;45475;-75
2022/01/16 00:23:54;;;;;;;;;60.50;44.25;;;;;4.52;57.58;102112.63;4961140;28;47689;-75
2022/01/16 00:26:22;;;;;;;;;63.75;47.00;;;;;3.94;57.00;102036.34;4978249;28;45459;-74
2022/01/16 00:28:49;;;;;;;;;57.50;44.75;;;;;4.92;56.82;102203.84;4960943;28;45251;-74
2022/01/16 00:31:16;;;;;;;;;59.00;46.75;;;;;4.57;57.37;102169.44;4960706;28;45200;-72
2022/01/16 00:33:44;;;;;;;;;53.75;40.75;;;;;4.77;57.58;102223.84;4960274;28;47156;-71
2022/01/16 00:36:11;;;;;;;;;58.75;46.00;;;;;4.13;57.60;102110.06;4977976;28;45378;-75
2022/01/16 00:38:40;;;;;;;;;53.50;41.25;;;;;4.73;57.18;102205.63;4960506;28;45305;-73
2022/01/16 00:41:05;;;;;;;;;58.50;45.00;;;;;4.88;57.64;102210.19;4960668;28;45611;-73
2022/01/16 00:43:31;;;;;;;;;58.25;45.50;;;;;4.24;57.29;102084.97;4977919;28;45719;-72
2022/01/16 00:45:56;;;;;;;;;59.50;46.75;;;;;4.80;57.70;102201.75;4960190;28;45278;-72
2022/01/16 00:48:22;;;;;;;;;49.25;40.50;;;;;4.62;57.33;102160.50;4941809;28;45567;-75
2022/01/16 00:50:47;;;;;;;;;57.00;44.00;;;;;4.77;57.20;102192.22;4940802;28;45454;-72
2022/01/16 00:53:13;;;;;;;;;57.75;45.50;;;;;4.92;57.45;102214.38;4944308;28;47307;-74
2022/01/16 00:55:38;;;;;;;;;53.50;41.25;;;;;4.79;57.19;102198.28;4957102;28;45382;-71
2022/01/16 00:58:04;;;;;;;;;61.50;45.50;;;;;4.82;56.97;102210.47;4956351;28;45635;-72
2022/01/16 01:00:33;;;;;;;;;52.75;41.50;;;;;4.77;57.12;102217.72;4961725;28;45517;-74
2022/01/16 01:03:00;;;;;;;;;54.00;42.00;;;;;4.67;57.41;102263.88;4978199;28;46673;-74
2022/01/16 01:05:26;;;;;;;;;50.25;39.25;;;;;4.76;57.27;102242.34;4959984;28;45394;-73
2022/01/16 01:07:52;;;;;;;;;50.00;38.75;;;;;4.57;57.70;102237.06;4956564;28;45432;-73
2022/01/16 01:10:18;;;;;;;;;58.75;44.25;;;;;4.73;57.12;102258.31;4958073;28;45399;-73
2022/01/16 01:12:54;;;;;;;;;56.75;45.00;;;;;4.49;57.33;102250.59;4940980;28;48867;-76
2022/01/16 01:15:26;;;;;;;;;58.75;47.00;;;;;4.57;57.80;102243.19;4957925;28;45317;-74
2022/01/16 01:17:52;;;;;;;;;60.25;45.75;;;;;4.62;57.60;102260.59;4967678;28;45517;-74
2022/01/16 01:20:19;;;;;;;;;60.00;45.75;;;;;4.75;57.60;102256.47;4960007;28;45492;-73
2022/01/16 01:22:48;;;;;;;;;55.25;43.00;;;;;4.63;56.77;102197.28;4959654;28;48226;-73
2022/01/16 01:25:14;;;;;;;;;58.00;44.00;;;;;4.11;57.63;102075.06;4960127;28;45543;-72
2022/01/16 01:27:43;;;;;;;;;55.00;42.75;;;;;4.37;57.36;102101.03;4960420;28;45223;-73
2022/01/16 01:30:11;;;;;;;;;52.25;43.75;;;;;4.74;56.73;102150.22;4978664;28;45231;-72
2022/01/16 01:32:38;;;;;;;;;57.00;41.50;;;;;4.88;57.20;102157.47;4981482;28;45941;-72
2022/01/16 01:35:09;;;;;;;;;54.75;44.25;;;;;4.77;56.81;102146.59;4981080;28;45216;-73
2022/01/16 01:37:35;;;;;;;;;57.00;42.25;;;;;4.93;56.68;102202.91;4981038;28;45488;-72
2022/01/16 01:40:03;;;;;;;;;54.50;42.00;;;;;4.88;56.80;102207.56;4981394;28;45515;-74
2022/01/16 01:42:34;;;;;;;;;52.50;43.25;;;;;4.79;56.83;102226.41;4964080;28;47484;-75
2022/01/16 01:53:17;;;;;;;;;56.75;43.75;;;;;4.92;56.39;102267.09;4980564;28;45784;-72
2022/01/16 01:55:44;;;;;;;;;58.75;46.00;;;;;4.82;56.72;102255.28;4980505;28;45504;-74
2022/01/16 01:58:11;;;;;;;;;52.25;42.25;;;;;4.89;57.22;102261.97;4980699;28;45331;-73
2022/01/16 02:00:42;;;;;;;;;59.75;45.00;;;;;4.89;57.37;102283.03;4963532;28;45453;-74
2022/01/16 02:03:42;;;;;;;;;61.00;48.50;;;;;4.82;57.37;102279.84;4980606;28;46157;-73
2022/01/16 02:05:57;;;;;;;;;64.00;48.00;;;;;4.73;57.67;102264.44;4978449;28;45473;-76
2022/01/16 02:08:23;;;;;;;;;67.00;50.00;;;;;4.72;57.32;102281.16;4980516;28;45456;-73
2022/01/16 02:10:49;;;;;;;;;62.25;49.75;;;;;4.83;57.61;102313.16;4963452;28;45474;-73
2022/01/16 02:13:23;;;;;;;;;63.25;47.75;;;;;4.63;57.82;102288.63;4962860;28;46668;-74
2022/01/16 02:32:46;;;;;;;;;59.00;45.75;;;;;4.80;58.30;102321.19;4980636;28;45336;-72
2022/01/16 02:35:12;;;;;;;;;68.25;47.75;;;;;4.77;58.46;102297.63;4961510;28;47690;-74
2022/01/16 02:37:38;;;;;;;;;58.50;46.25;;;;;4.75;58.20;102283.66;4978532;28;45283;-73
2022/01/16 02:40:12;;;;;;;;;63.25;50.75;;;;;4.65;58.15;102258.66;4979608;28;45488;-74
2022/01/16 02:42:41;;;;;;;;;63.00;48.75;;;;;4.62;58.52;102240.38;4979616;28;45544;-72
2022/01/16 02:45:15;;;;;;;;;60.00;49.00;;;;;4.78;58.40;102256.31;4962191;28;46726;-74
2022/01/16 02:47:40;;;;;;;;;56.50;44.25;;;;;4.74;58.02;102265.28;4979386;28;45259;-72
2022/01/16 02:50:06;;;;;;;;;66.25;49.25;;;;;4.78;58.68;102264.22;4979326;28;45648;-73
2022/01/16 02:52:31;;;;;;;;;63.25;50.25;;;;;4.71;58.61;102246.97;4979898;28;45373;-72
2022/01/16 02:55:00;;;;;;;;;66.50;50.00;;;;;4.66;58.48;102241.06;4979891;28;46465;-72
2022/01/16 02:57:25;;;;;;;;;66.50;50.00;;;;;4.22;58.79;102184.22;4980277;28;45249;-74
2022/01/16 02:59:54;;;;;;;;;59.75;46.75;;;;;4.69;58.33;102251.47;4979678;28;45224;-72
2022/01/16 03:02:23;;;;;;;;;65.50;51.50;;;;;4.74;58.32;102252.13;4979498;28;45336;-73
2022/01/16 03:04:49;;;;;;;;;61.25;49.50;;;;;4.77;58.78;102265.13;4961892;28;48227;-72
2022/01/16 03:07:15;;;;;;;;;65.75;50.25;;;;;4.65;58.91;102244.63;4979387;28;45304;-73
2022/01/16 03:10:03;;;;;;;;;61.00;47.50;;;;;4.82;58.69;102265.81;4979001;28;45487;-73
2022/01/16 03:12:29;;;;;;;;;66.25;50.25;;;;;4.85;59.21;102247.22;4962494;28;45575;-73
2022/01/16 03:14:55;;;;;;;;;69.50;48.25;;;;;4.36;59.11;102186.22;4961460;28;47964;-72
2022/01/16 03:17:34;;;;;;;;;55.50;43.50;;;;;4.69;58.91;102251.47;4977326;28;45951;-74
2022/01/16 03:22:43;;;;;;;;;67.00;49.75;;;;;4.62;59.09;102228.97;4979496;28;45216;-72
2022/01/16 03:25:09;;;;;;;;;65.00;51.00;;;;;4.65;58.72;102234.09;4978736;28;45747;-74
2022/01/16 03:27:36;;;;;;;;;60.00;46.00;;;;;4.14;58.76;102148.63;4978773;28;45274;-74
2022/01/16 03:30:02;;;;;;;;;61.00;47.50;;;;;4.25;58.45;102156.91;4978984;28;45309;-74
2022/01/16 03:32:27;;;;;;;;;65.00;47.50;;;;;4.07;58.53;102137.50;4962581;28;45529;-72
2022/01/16 03:34:53;;;;;;;;;65.00;49.00;;;;;4.83;58.83;102256.97;4979904;28;45859;-76
2022/01/16 03:37:18;;;;;;;;;63.00;47.25;;;;;4.21;59.00;102153.56;4961150;28;45679;-76
2022/01/16 03:39:44;;;;;;;;;60.25;46.00;;;;;4.68;58.56;102245.34;4978760;28;45448;-73
2022/01/16 03:42:09;;;;;;;;;61.25;50.50;;;;;4.64;59.37;102248.19;4978971;28;45542;-72
2022/01/16 03:44:35;;;;;;;;;66.75;52.25;;;;;4.17;59.41;102180.06;4961004;28;47420;-73
2022/01/16 03:47:01;;;;;;;;;63.75;50.00;;;;;4.69;59.07;102280.44;4976833;28;45442;-72
2022/01/16 03:49:29;;;;;;;;;66.50;48.00;;;;;4.68;58.95;102265.56;4978422;28;45280;-72
2022/01/16 03:51:56;;;;;;;;;66.50;51.50;;;;;4.67;59.23;102253.31;4978863;28;45513;-73
2022/01/16 03:54:26;;;;;;;;;62.75;50.75;;;;;4.16;59.15;102162.56;4976116;28;48573;-72
2022/01/16 03:56:52;;;;;;;;;60.25;46.75;;;;;4.63;59.77;102259.66;4959148;28;45422;-71
2022/01/16 03:59:17;;;;;;;;;67.25;49.75;;;;;4.64;59.97;102264.00;4959137;28;45296;-73
2022/01/16 04:01:43;;;;;;;;;64.00;49.50;;;;;4.55;59.81;102259.97;4941800;28;45237;-75
2022/01/16 04:04:09;;;;;;;;;63.75;49.00;;;;;4.62;59.64;102266.72;4958782;28;45791;-73
2022/01/16 04:06:35;;;;;;;;;63.00;49.25;;;;;4.56;59.55;102278.34;4958917;28;45551;-72
2022/01/16 04:09:02;;;;;;;;;64.25;49.25;;;;;4.51;59.96;102267.16;4978350;28;45255;-72
2022/01/16 04:11:28;;;;;;;;;64.50;50.00;;;;;4.02;60.32;102172.84;4960696;28;45477;-74
2022/01/16 04:14:03;;;;;;;;;61.00;45.75;;;;;4.56;59.82;102272.22;4979717;28;47020;-70
2022/01/16 04:16:30;;;;;;;;;60.00;47.50;;;;;4.00;60.26;102198.34;4977786;28;45545;-72
2022/01/16 04:18:56;;;;;;;;;62.50;48.25;;;;;4.43;60.06;102274.56;4978228;28;45403;-72
2022/01/16 04:21:24;;;;;;;;;70.75;52.00;;;;;4.48;60.17;102296.28;4976985;28;45513;-72
2022/01/16 04:23:51;;;;;;;;;60.50;45.50;;;;;4.44;60.24;102297.34;4977839;28;45847;-73
2022/01/16 04:26:18;;;;;;;;;62.25;47.50;;;;;4.50;60.20;102298.84;4977853;28;45635;-72
2022/01/16 04:28:46;;;;;;;;;62.50;48.75;;;;;4.44;60.17;102305.25;4960534;28;45466;-73
2022/01/16 04:31:12;;;;;;;;;61.50;47.75;;;;;4.01;60.46;102229.03;4978836;28;45453;-72
2022/01/16 04:33:37;;;;;;;;;62.25;47.25;;;;;4.45;60.52;102309.59;4961434;28;48419;-73
2022/01/16 04:36:03;;;;;;;;;57.75;43.25;;;;;4.00;60.82;102261.50;4977706;28;45300;-74
2022/01/16 04:38:28;;;;;;;;;61.75;48.25;;;;;4.28;60.55;102325.25;4980683;28;45525;-72
2022/01/16 04:43:47;;;;;;;;;62.50;46.00;;;;;4.28;61.36;102328.72;4978734;28;45816;-74
2022/01/16 04:46:16;;;;;;;;;59.50;45.00;;;;;4.35;60.84;102331.94;4978362;28;45312;-73
2022/01/16 04:48:42;;;;;;;;;60.25;49.50;;;;;4.26;61.37;102298.13;4977933;28;45456;-73
2022/01/16 04:51:08;;;;;;;;;63.75;47.00;;;;;4.18;60.81;102303.69;4978050;28;45315;-72
2022/01/16 04:53:34;;;;;;;;;63.50;48.00;;;;;4.18;61.45;102297.59;4977902;28;46417;-72
2022/01/16 04:55:59;;;;;;;;;65.75;49.00;;;;;4.25;60.82;102309.59;4977249;28;45559;-73
2022/01/16 04:58:24;;;;;;;;;64.00;48.50;;;;;3.63;61.01;102190.28;4978858;28;45448;-73
2022/01/16 05:00:50;;;;;;;;;63.25;50.00;;;;;4.31;60.93;102297.94;4961593;28;45536;-73
2022/01/16 05:03:15;;;;;;;;;62.25;46.75;;;;;4.42;61.18;102322.88;4977538;28;46013;-73
2022/01/16 05:05:41;;;;;;;;;61.00;49.00;;;;;4.45;61.36;102327.16;4977218;28;45293;-72
2022/01/16 05:08:06;;;;;;;;;63.50;47.00;;;;;4.30;61.14;102307.59;4977831;28;45342;-74
2022/01/16 05:10:32;;;;;;;;;61.25;48.00;;;;;4.21;61.75;102298.34;4977690;28;45543;-71
2022/01/16 05:13:16;;;;;;;;;66.25;49.25;;;;;4.36;61.81;102333.66;4978000;28;46662;-74
2022/01/16 05:18:25;;;;;;;;;60.75;47.50;;;;;4.25;62.20;102325.38;4958026;28;45304;-73
2022/01/16 05:20:50;;;;;;;;;62.25;47.75;;;;;3.79;62.04;102232.56;4956401;28;45245;-74
2022/01/16 05:23:16;;;;;;;;;62.50;49.00;;;;;4.40;62.23;102343.13;4940165;28;48360;-74
2022/01/16 05:25:41;;;;;;;;;62.50;45.00;;;;;4.36;62.51;102338.94;4967154;28;45451;-73
2022/01/16 05:28:07;;;;;;;;;64.75;47.75;;;;;4.40;62.40;102340.50;4960407;28;45364;-72
2022/01/16 05:30:32;;;;;;;;;55.50;43.50;;;;;4.47;62.45;102349.03;4976040;28;45560;-74
2022/01/16 05:32:57;;;;;;;;;62.50;47.75;;;;;4.46;61.68;102366.59;4977210;28;47736;-74
2022/01/16 05:35:23;;;;;;;;;64.00;50.25;;;;;4.43;62.64;102377.25;4977120;28;45239;-73
2022/01/16 05:37:48;;;;;;;;;64.00;48.50;;;;;4.26;63.67;102363.94;4959686;28;45339;-73
2022/01/16 05:40:13;;;;;;;;;58.75;44.25;;;;;4.30;62.85;102391.84;4975716;28;45484;-73
2022/01/16 05:42:39;;;;;;;;;61.50;46.00;;;;;4.35;63.65;102391.66;4976864;28;46411;-73
2022/01/16 05:45:05;;;;;;;;;65.25;47.00;;;;;4.30;62.91;102376.06;4976839;28;45220;-74
2022/01/16 05:47:30;;;;;;;;;56.25;44.25;;;;;4.14;63.31;102333.72;4977031;28;45260;-72
2022/01/16 05:49:56;;;;;;;;;48.50;38.50;;;;;4.30;63.48;102360.25;4959574;28;45307;-71
2022/01/16 05:52:21;;;;;;;;;49.25;39.75;;;;;3.57;62.98;102226.47;4976664;28;45542;-71
2022/01/16 05:54:46;;;;;;;;;55.50;43.75;;;;;4.21;63.80;102356.25;4959252;28;45511;-73
2022/01/16 05:57:12;;;;;;;;;48.50;42.00;;;;;4.14;63.24;102352.13;4946716;28;45278;-74
2022/01/16 05:59:37;;;;;;;;;54.50;42.75;;;;;4.34;62.86;102376.78;4959564;28;45501;-72
2022/01/16 06:02:03;;;;;;;;;56.50;44.25;;;;;4.40;62.64;102387.91;4959288;28;47466;-72
2022/01/16 06:04:29;;;;;;;;;58.75;45.00;;;;;4.39;62.91;102375.66;4975394;28;45323;-74
2022/01/16 06:06:54;;;;;;;;;48.00;38.25;;;;;4.37;63.52;102355.59;4976945;28;45474;-75
2022/01/16 06:09:20;;;;;;;;;60.50;43.75;;;;;4.42;63.33;102365.03;4959952;28;45536;-72
2022/01/16 06:11:45;;;;;;;;;54.75;44.00;;;;;4.43;62.92;102365.88;4975400;28;46691;-71
2022/01/16 06:14:10;;;;;;;;;60.25;46.75;;;;;4.47;63.40;102372.72;4977730;28;45511;-73
2022/01/16 06:16:37;;;;;;;;;56.75;42.75;;;;;3.68;63.30;102261.09;4958701;28;45376;-75
2022/01/16 06:19:02;;;;;;;;;54.00;43.75;;;;;4.50;63.20;102410.31;4980176;28;45540;-73
2022/01/16 06:21:28;;;;;;;;;54.25;43.00;;;;;4.39;63.55;102407.25;4962167;28;46781;-73
2022/01/16 06:23:53;;;;;;;;;57.00;40.00;;;;;4.45;63.71;102412.28;4979807;28;45369;-71
2022/01/16 06:26:19;;;;;;;;;44.50;38.50;;;;;4.35;63.71;102392.50;4979545;28;45417;-75
2022/01/16 06:28:44;;;;;;;;;53.50;38.75;;;;;3.86;63.91;102323.47;4962453;28;45265;-74
2022/01/16 06:31:09;;;;;;;;;55.75;40.25;;;;;3.83;63.77;102317.50;4962180;28;47469;-73
2022/01/16 06:33:35;;;;;;;;;50.50;39.25;;;;;4.22;64.13;102383.44;4980271;28;45342;-73
2022/01/16 06:36:01;;;;;;;;;52.00;39.25;;;;;4.34;63.53;102408.38;4958796;28;45351;-75
2022/01/16 06:38:27;;;;;;;;;45.67;37.33;;;;;4.27;63.51;102398.09;4942851;28;45541;-73
2022/01/16 06:40:53;;;;;;;;;39.67;36.67;;;;;3.83;63.86;102318.34;4943046;28;48823;-73
2022/01/16 06:43:18;;;;;;;;;41.00;33.67;;;;;3.95;64.48;102365.19;4960473;28;45403;-73
2022/01/16 06:45:43;;;;;;;;;43.67;31.00;;;;;4.03;64.77;102371.94;4950632;28;46053;-71
2022/01/16 06:48:09;;;;;;;;;40.33;33.67;;;;;3.89;64.80;102370.69;4979829;28;45407;-73
2022/01/16 06:50:34;;;;;;;;;38.67;34.33;;;;;4.28;64.45;102420.03;4979040;28;46180;-72
2022/01/16 06:53:00;;;;;;;;;35.75;25.25;;;;;4.09;64.60;102390.97;4979701;28;45461;-75
2022/01/16 06:55:25;;;;;;;;;42.33;35.67;;;;;4.11;65.20;102409.31;4962368;28;45537;-72
2022/01/16 06:57:51;;;;;;;;;36.67;30.33;;;;;4.11;65.60;102425.97;4981431;28;45371;-73
2022/01/16 07:00:16;;;;;;;;;36.67;29.00;;;;;4.22;65.30;102441.34;4980892;28;45385;-74
2022/01/16 07:02:42;;;;;;;;;46.67;37.00;;;;;4.20;65.09;102436.09;4962341;28;45542;-74
2022/01/16 07:05:07;;;;;;;;;42.67;29.67;;;;;4.28;64.76;102444.56;4961779;28;45435;-73
2022/01/16 07:07:33;;;;;;;;;35.00;29.00;;;;;4.11;65.11;102414.56;4961830;28;45573;-72
2022/01/16 07:09:58;;;;;;;;;37.00;28.67;;;;;4.36;65.13;102464.47;4961522;28;47888;-73
2022/01/16 07:12:24;;;;;;;;;37.00;29.00;;;;;4.42;65.10;102475.63;4961579;28;45454;-72
2022/01/16 07:14:49;;;;;;;;;35.00;28.33;;;;;4.37;64.53;102467.03;4980333;28;45482;-73
2022/01/16 07:17:14;;;;;;;;;41.67;32.33;;;;;4.42;64.96;102475.63;4961966;28;45457;-71
2022/01/16 07:19:40;;;;;;;;;37.33;30.67;;;;;3.91;64.96;102394.31;4962934;28;47347;-73
2022/01/16 07:22:05;;;;;;;;;24.00;19.67;;;;;4.05;65.05;102439.38;4979095;28;45588;-74
2022/01/16 07:24:31;;;;;;;;;33.00;28.67;;;;;4.10;66.05;102439.19;4979317;28;45406;-74
2022/01/16 07:27:00;;;;;;;;;39.00;30.67;;;;;4.15;65.12;102445.13;4961608;28;45337;-74
2022/01/16 07:29:26;;;;;;;;;41.67;32.00;;;;;4.18;65.46;102455.53;4980025;28;46300;-74
2022/01/16 07:31:52;;;;;;;;;37.67;34.00;;;;;3.21;65.62;102281.38;4979091;28;45423;-75
2022/01/16 07:34:17;;;;;;;;;37.00;26.67;;;;;4.06;66.04;102434.97;4979207;28;45378;-72
2022/01/16 07:36:43;;;;;;;;;33.67;27.33;;;;;3.55;65.90;102359.78;4961198;28;45257;-71
2022/01/16 07:39:08;;;;;;;;;38.33;29.33;;;;;4.19;66.41;102473.03;4978708;28;45761;-73
2022/01/16 07:41:34;;;;;;;;;35.33;29.33;;;;;4.22;66.49;102479.06;4961040;28;45173;-74
2022/01/16 07:43:59;;;;;;;;;35.00;31.67;;;;;4.37;66.12;102487.25;4956929;28;45829;-71
2022/01/16 07:46:24;;;;;;;;;36.67;28.67;;;;;4.36;65.41;102486.38;4978841;28;45197;-72
2022/01/16 07:48:50;;;;;;;;;36.33;28.33;;;;;4.48;65.49;102491.16;4961719;28;47699;-73
2022/01/16 07:51:15;;;;;;;;;37.33;34.00;;;;;4.45;65.75;102480.75;4960377;28;46035;-74
2022/01/16 07:53:40;;;;;;;;;46.33;36.00;;;;;4.50;65.53;102484.06;4968752;28;45518;-72
2022/01/16 07:56:06;;;;;;;;;45.67;36.33;;;;;4.43;65.74;102477.34;4981364;28;45508;-76
2022/01/16 07:58:31;;;;;;;;;31.67;25.67;;;;;4.33;66.14;102465.44;4998320;28;46352;-74
2022/01/16 08:00:57;;;;;;;;;33.33;27.67;;;;;4.38;66.87;102479.28;4986646;28;45314;-74
2022/01/16 08:03:23;;;;;;;;;43.00;37.33;;;;;4.29;66.83;102458.59;4978402;28;45535;-74
2022/01/16 08:05:49;;;;;;;;;36.67;33.00;;;;;4.30;66.98;102459.44;4979118;28;45563;-74
2022/01/16 08:08:14;;;;;;;;;32.33;27.00;;;;;3.76;67.23;102379.13;4978034;28;48899;-73
2022/01/16 08:10:40;;;;;;;;;38.00;29.00;;;;;4.30;66.66;102470.84;4957207;28;45615;-74
2022/01/16 08:13:05;;;;;;;;;48.00;36.33;;;;;3.57;66.35;102336.91;4960265;28;45485;-72
2022/01/16 08:15:31;;;;;;;;;40.00;33.67;;;;;4.37;66.65;102467.03;4946557;28;45328;-74
2022/01/16 08:17:56;;;;;;;;;40.33;35.67;;;;;4.38;66.61;102467.88;4958636;28;48754;-75
2022/01/16 08:20:22;;;;;;;;;43.00;35.33;;;;;4.47;66.68;102473.66;4957329;28;46038;-75
2022/01/16 08:22:48;;;;;;;;;37.33;31.67;;;;;4.46;67.06;102500.06;4958763;28;45299;-75
2022/01/16 08:25:13;;;;;;;;;42.00;34.67;;;;;4.49;66.63;102499.94;4956666;28;45544;-77
2022/01/16 08:27:39;;;;;;;;;29.00;27.33;;;;;4.38;66.95;102478.41;4957233;28;47634;-74
2022/01/16 08:30:05;;;;;;;;;40.33;31.00;;;;;3.47;66.77;102317.16;4972462;28;46371;-73
2022/01/16 08:32:31;;;;;;;;;47.67;36.33;;;;;4.55;66.46;102502.31;4939392;28;45536;-75
2022/01/16 08:34:56;;;;;;;;;44.75;33.50;;;;;4.31;67.31;102458.53;4957947;28;45292;-75
2022/01/16 08:37:22;;;;;;;;;41.67;31.00;;;;;4.38;67.08;102478.41;4956234;28;47749;-78
2022/01/16 08:39:47;;;;;;;;;43.67;35.00;;;;;4.28;67.51;102468.28;4973064;28;46079;-75
2022/01/16 08:42:12;;;;;;;;;43.25;37.50;;;;;4.25;67.89;102462.28;4958710;28;45530;-76
2022/01/16 08:44:38;;;;;;;;;35.33;32.67;;;;;4.34;67.90;102476.84;4957065;28;45548;-75
2022/01/16 08:47:06;;;;;;;;;38.00;24.00;;;;;4.39;68.04;102491.53;4971260;28;47845;-77
2022/01/16 08:49:31;;;;;;;;;44.67;36.00;;;;;4.15;67.88;102450.38;4955651;28;45558;-76
2022/01/16 08:51:58;;;;;;;;;45.00;31.33;;;;;4.34;68.00;102484.72;4956890;28;45442;-74
2022/01/16 08:54:23;;;;;;;;;36.33;27.00;;;;;4.34;67.84;102493.50;4955732;28;45481;-75
2022/01/16 08:56:49;;;;;;;;;45.67;37.00;;;;;4.37;67.52;102493.38;4958644;28;46505;-76
2022/01/16 08:59:14;;;;;;;;;37.67;30.33;;;;;4.36;67.95;102488.16;4960604;28;45429;-75
2022/01/16 09:01:40;;;;;;;;;33.67;30.00;;;;;4.63;66.98;102502.00;4972590;28;45430;-75
2022/01/16 09:04:05;;;;;;;;;48.67;35.33;;;;;4.73;66.87;102509.44;4977733;28;45509;-77
2022/01/16 09:06:30;;;;;;;;;41.67;30.67;;;;;4.77;66.77;102507.53;4962108;28;46503;-76
2022/01/16 09:08:56;;;;;;;;;39.67;30.67;;;;;4.75;66.88;102504.97;4968589;28;45476;-78
2022/01/16 09:11:25;;;;;;;;;31.67;26.33;;;;;4.87;66.99;102524.72;4959686;28;45252;-77
2022/01/16 09:13:52;;;;;;;;;33.33;28.33;;;;;4.64;66.17;102488.78;4954885;28;45322;-75
2022/01/16 09:16:19;;;;;;;;;38.33;34.00;;;;;4.83;66.21;102526.63;4948342;28;46541;-76
2022/01/16 09:18:45;;;;;;;;;31.33;29.67;;;;;4.89;66.61;102533.41;4980595;28;45379;-74
2022/01/16 09:21:10;;;;;;;;;43.33;33.67;;;;;4.89;66.89;102529.00;4978463;28;45231;-78
2022/01/16 09:23:37;;;;;;;;;32.00;29.00;;;;;4.76;66.35;102519.00;4965467;28;45260;-74
2022/01/16 09:26:02;;;;;;;;;38.00;29.33;;;;;4.86;66.24;102523.84;4958743;28;47676;-78
2022/01/16 09:28:28;;;;;;;;;38.00;32.00;;;;;4.85;65.97;102513.38;4958711;28;45498;-76
2022/01/16 09:30:53;;;;;;;;;36.00;28.33;;;;;4.94;65.65;102541.09;4959952;28;45912;-74
2022/01/16 09:33:18;;;;;;;;;37.00;28.67;;;;;4.83;65.79;102528.41;4977239;28;45327;-76
2022/01/16 09:35:44;;;;;;;;;39.00;33.33;;;;;4.72;65.56;102504.25;4959928;28;48235;-75
2022/01/16 09:38:09;;;;;;;;;33.00;28.33;;;;;4.90;65.56;102545.66;4979613;28;45454;-74
2022/01/16 09:40:35;;;;;;;;;33.00;31.33;;;;;4.92;65.07;102548.22;4981853;28;45499;-75
2022/01/16 09:43:03;;;;;;;;;24.00;19.00;;;;;4.81;65.82;102524.97;4971864;28;45427;-75
2022/01/16 09:45:33;;;;;;;;;36.00;28.67;;;;;4.98;65.44;102540.91;4975496;28;45561;-76
2022/01/16 09:47:58;;;;;;;;;31.00;25.00;;;;;5.22;64.60;102557.50;4958206;28;45648;-74
2022/01/16 09:50:26;;;;;;;;;28.00;26.67;;;;;5.31;64.46;102545.69;4972519;28;45736;-76
2022/01/16 09:52:51;;;;;;;;;31.67;25.67;;;;;5.41;64.16;102553.16;4961056;28;45412;-75
2022/01/16 09:55:21;;;;;;;;;28.33;24.67;;;;;5.43;64.19;102546.03;4981360;28;45485;-74
2022/01/16 09:57:47;;;;;;;;;28.33;27.67;;;;;4.69;63.04;102413.03;4964467;28;45394;-74
2022/01/16 10:00:15;;;;;;;;;30.33;25.67;;;;;5.30;63.62;102526.38;4979906;28;45510;-75
2022/01/16 10:02:41;;;;;;;;;27.00;20.33;;;;;5.41;63.72;102547.03;4981349;28;45554;-76
2022/01/16 10:05:29;;;;;;;;;19.33;19.33;;;;;5.46;64.28;102567.00;4984852;28;47319;-76
2022/01/16 10:07:56;;;;;;;;;29.33;21.67;;;;;5.50;62.51;102547.47;4975298;28;45591;-76
2022/01/16 10:10:31;;;;;;;;;24.00;22.67;;;;;5.33;63.27;102501.63;4962319;28;45477;-76
2022/01/16 10:13:05;;;;;;;;;24.33;22.33;;;;;5.66;62.97;102545.00;4980605;28;45438;-74
2022/01/16 10:15:31;;;;;;;;;20.33;20.33;;;;;5.61;62.38;102523.25;4982038;28;46220;-74
2022/01/16 10:17:59;;;;;;;;;28.67;26.33;;;;;5.38;62.90;102470.63;4980706;28;45313;-74
2022/01/16 10:20:26;;;;;;;;;22.67;21.00;;;;;5.89;62.78;102551.03;4980174;28;45509;-76
2022/01/16 10:22:57;;;;;;;;;29.33;22.33;;;;;5.36;61.91;102454.03;4963156;28;45416;-75
2022/01/16 10:25:47;;;;;;;;;34.67;28.33;;;;;5.94;62.02;102543.78;4979352;28;47648;-75
2022/01/16 10:28:26;;;;;;;;;29.00;25.67;;;;;5.93;61.71;102532.38;4963803;28;45501;-77
2022/01/16 10:30:55;;;;;;;;;28.33;24.00;;;;;6.05;61.55;102550.31;4954504;28;45278;-75
2022/01/16 10:33:28;;;;;;;;;31.67;27.33;;;;;6.15;61.28;102565.72;4972662;28;45447;-75
2022/01/16 10:35:55;;;;;;;;;27.00;23.33;;;;;5.78;61.79;102518.03;4979774;28;45511;-72
2022/01/16 10:38:26;;;;;;;;;23.00;19.00;;;;;5.99;62.31;102554.97;4991019;28;45481;-73
2022/01/16 10:40:54;;;;;;;;;28.00;22.33;;;;;5.77;62.46;102521.63;4984961;28;45403;-75
2022/01/16 10:43:35;;;;;;;;;24.67;22.33;;;;;5.62;62.82;102513.56;4980271;28;45487;-79
2022/01/16 10:46:01;;;;;;;;;22.00;17.67;;;;;5.49;63.33;102507.97;4974912;28;47582;-76
2022/01/16 10:48:27;;;;;;;;;28.67;27.67;;;;;5.57;63.79;102537.47;4941803;28;45418;-75
2022/01/16 10:50:52;;;;;;;;;21.00;21.00;;;;;5.63;63.34;102546.94;4945967;28;45383;-78
2022/01/16 10:53:24;;;;;;;;;23.00;20.00;;;;;5.79;63.46;102554.06;4946033;28;45222;-76
2022/01/16 10:55:53;;;;;;;;;29.67;25.00;;;;;5.76;62.56;102548.94;4943582;28;46930;-76
2022/01/16 10:58:21;;;;;;;;;22.67;21.67;;;;;5.89;63.71;102554.53;4964999;28;45531;-76
2022/01/16 11:01:13;;;;;;;;;23.00;23.00;;;;;5.66;62.97;102525.69;4945026;28;45377;-75
2022/01/16 11:03:46;;;;;;;;;32.67;27.33;;;;;5.70;62.90;102533.38;4962346;28;45189;-74
2022/01/16 11:06:16;;;;;;;;;31.67;27.67;;;;;5.86;63.13;102537.97;4963457;28;46590;-77
2022/01/16 11:08:56;;;;;;;;;27.67;25.67;;;;;5.94;63.80;102554.34;4959599;28;46094;-77
2022/01/16 11:11:22;;;;;;;;;29.67;24.33;;;;;5.52;63.23;102468.25;4943265;28;45216;-78
2022/01/16 11:13:50;;;;;;;;;26.67;22.67;;;;;5.99;62.88;102539.16;4960109;28;45227;-75
2022/01/16 11:16:16;;;;;;;;;25.33;22.33;;;;;6.13;63.74;102562.28;4958213;28;47334;-77
2022/01/16 11:18:48;;;;;;;;;33.00;27.00;;;;;6.07;62.80;102552.88;4959816;28;45487;-75
2022/01/16 11:21:19;;;;;;;;;25.00;19.67;;;;;6.03;63.86;102553.94;4960119;28;45284;-78
2022/01/16 11:26:23;;;;;;;;;25.67;17.67;;;;;6.06;62.73;102565.22;4959878;28;45575;-76
2022/01/16 11:28:51;;;;;;;;;26.33;24.67;;;;;6.01;63.37;102547.88;4941901;28;45271;-76
2022/01/16 11:31:17;;;;;;;;;26.00;21.33;;;;;5.91;64.26;102542.16;4978451;28;45315;-74
2022/01/16 11:33:44;;;;;;;;;28.33;26.33;;;;;5.84;64.13;102534.56;4961335;28;45405;-74
2022/01/16 11:36:14;;;;;;;;;25.00;21.67;;;;;5.88;64.54;102546.69;4979133;28;45504;-75
2022/01/16 11:38:42;;;;;;;;;26.00;25.33;;;;;5.69;64.50;102531.66;4979838;28;45356;-74
2022/01/16 11:41:16;;;;;;;;;30.33;28.33;;;;;5.76;64.85;102548.94;4979781;28;45477;-75
2022/01/16 11:43:46;;;;;;;;;34.00;30.67;;;;;5.77;64.92;102534.81;4979097;28;45296;-75
2022/01/16 11:46:14;;;;;;;;;43.67;36.00;;;;;5.68;65.50;102524.69;4978936;28;46802;-75
2022/01/16 11:48:47;;;;;;;;;27.67;27.33;;;;;5.57;65.17;102505.81;4978370;28;45481;-77
2022/01/16 11:54:15;;;;;;;;;26.00;23.33;;;;;6.18;64.20;102555.84;4978777;28;45467;-78
2022/01/16 11:56:41;;;;;;;;;25.00;22.67;;;;;6.24;64.43;102560.88;4977108;28;46775;-77
2022/01/16 11:59:25;;;;;;;;;30.33;22.67;;;;;6.21;64.29;102550.44;4960657;28;45185;-74